Time;durP1;ratioP1;P1;durP2;ratioP2;P2;SDS_P1;SDS_P2;PMS_P1;PMS_P2;Temp;Humidity;BMP_temperature;BMP_pressure;BME280_temperature;BME280_humidity;BME280_pressure;Samples;Min_cycle;Max_cycle;Signal;HPM_P1;HPM_P2
2022/10/31 00:01:35;;;;;;;27.13;19.40;;;14.10;99.90;;;;;;5048765;28;20052;-74
2022/10/31 00:04:01;;;;;;;28.63;19.65;;;14.00;99.90;;;;;;5066476;28;20123;-74
2022/10/31 00:06:27;;;;;;;26.75;20.30;;;14.00;99.90;;;;;;5056351;28;20119;-74
2022/10/31 00:08:56;;;;;;;26.15;19.95;;;14.00;99.90;;;;;;5073985;28;20486;-74
2022/10/31 00:11:22;;;;;;;26.17;19.85;;;14.00;99.90;;;;;;5059787;28;20071;-74
2022/10/31 00:13:48;;;;;;;27.65;18.85;;;14.00;99.90;;;;;;5061826;28;20143;-74
2022/10/31 00:16:24;;;;;;;25.20;18.33;;;13.90;99.90;;;;;;5055115;28;20529;-74
2022/10/31 00:18:51;;;;;;;26.65;19.05;;;13.90;99.90;;;;;;5062730;28;20498;-74
2022/10/31 00:21:17;;;;;;;28.70;19.55;;;13.90;99.90;;;;;;5079148;28;20089;-73
2022/10/31 00:23:43;;;;;;;24.83;19.67;;;13.80;99.90;;;;;;5067243;28;20045;-74
2022/10/31 00:26:08;;;;;;;27.83;19.25;;;13.70;99.90;;;;;;5060926;28;20037;-74
2022/10/31 00:28:34;;;;;;;24.70;19.38;;;13.80;99.90;;;;;;5063984;28;20036;-73
2022/10/31 00:31:07;;;;;;;25.55;19.25;;;13.70;99.90;;;;;;5066837;28;20057;-74
2022/10/31 00:33:37;;;;;;;27.83;19.92;;;13.70;99.90;;;;;;5067565;28;20123;-73
2022/10/31 00:36:04;;;;;;;25.85;20.52;;;13.60;99.90;;;;;;5060409;28;20045;-74
2022/10/31 00:38:29;;;;;;;26.15;19.75;;;13.60;99.90;;;;;;5055959;28;20082;-74
2022/10/31 00:40:55;;;;;;;25.40;19.02;;;13.60;99.90;;;;;;5053529;28;20041;-74
2022/10/31 00:43:21;;;;;;;28.67;20.95;;;13.60;99.90;;;;;;5069879;28;20029;-74
2022/10/31 00:45:46;;;;;;;22.60;18.02;;;13.50;99.90;;;;;;5056513;28;20092;-73
2022/10/31 00:48:12;;;;;;;22.05;17.02;;;13.50;99.90;;;;;;5067062;28;20052;-73
2022/10/31 00:50:38;;;;;;;23.85;18.92;;;13.50;99.90;;;;;;5069826;28;20032;-73
2022/10/31 00:53:04;;;;;;;24.85;18.65;;;13.40;99.90;;;;;;5063031;28;20040;-74
2022/10/31 00:55:29;;;;;;;27.30;19.95;;;13.40;99.90;;;;;;5065073;28;20071;-74
2022/10/31 00:57:55;;;;;;;26.52;19.17;;;13.30;99.90;;;;;;5072481;28;20522;-72
2022/10/31 01:00:21;;;;;;;25.17;19.73;;;13.40;99.90;;;;;;5061114;28;20060;-72
2022/10/31 01:02:47;;;;;;;31.55;18.73;;;13.40;99.90;;;;;;5066571;28;20112;-72
2022/10/31 01:05:12;;;;;;;26.80;18.92;;;13.30;99.90;;;;;;5068195;28;20047;-72
2022/10/31 01:07:40;;;;;;;24.55;17.77;;;13.30;99.90;;;;;;5059102;28;20548;-71
2022/10/31 01:10:06;;;;;;;25.25;18.58;;;13.30;99.90;;;;;;5070055;28;20144;-72
2022/10/31 01:12:39;;;;;;;24.40;18.15;;;13.20;99.90;;;;;;5058385;28;20056;-72
2022/10/31 01:15:06;;;;;;;23.05;18.13;;;13.20;99.90;;;;;;5048652;28;20937;-72
2022/10/31 01:17:32;;;;;;;22.63;17.53;;;13.20;99.90;;;;;;5063961;28;20048;-72
2022/10/31 01:19:57;;;;;;;19.38;15.50;;;13.20;99.90;;;;;;5060256;28;20102;-72
2022/10/31 01:22:23;;;;;;;17.80;14.90;;;13.10;99.90;;;;;;5064881;28;20698;-72
2022/10/31 01:24:48;;;;;;;15.98;14.25;;;13.10;99.90;;;;;;5061890;28;20036;-72
2022/10/31 01:27:14;;;;;;;16.13;13.93;;;13.00;99.90;;;;;;5052495;28;20897;-72
2022/10/31 01:29:40;;;;;;;19.40;15.05;;;13.00;99.90;;;;;;5053839;28;20056;-72
2022/10/31 01:32:05;;;;;;;19.08;15.38;;;12.90;99.90;;;;;;5070622;28;20041;-72
2022/10/31 01:34:31;;;;;;;19.98;15.77;;;12.90;99.90;;;;;;5067255;28;20531;-72
2022/10/31 01:36:56;;;;;;;21.40;15.90;;;12.90;99.90;;;;;;5070636;28;20041;-72
2022/10/31 01:39:22;;;;;;;22.10;16.10;;;12.90;99.90;;;;;;5061576;28;20586;-72
2022/10/31 01:41:50;;;;;;;19.75;16.08;;;12.80;99.90;;;;;;5065204;28;20064;-72
2022/10/31 01:44:16;;;;;;;21.85;16.20;;;12.80;99.90;;;;;;5060283;28;20059;-72
2022/10/31 01:46:50;;;;;;;21.92;16.65;;;12.70;99.90;;;;;;5055256;28;20029;-72
2022/10/31 01:49:31;;;;;;;19.25;15.10;;;12.70;99.90;;;;;;5051244;28;20112;-72
2022/10/31 01:52:21;;;;;;;20.08;15.98;;;12.70;99.90;;;;;;5054590;28;20068;-72
2022/10/31 01:55:01;;;;;;;19.50;14.60;;;12.70;99.90;;;;;;5061359;28;20491;-72
2022/10/31 01:57:28;;;;;;;19.17;16.30;;;12.60;99.90;;;;;;5059138;28;20076;-73
2022/10/31 01:59:57;;;;;;;19.67;15.60;;;12.60;99.90;;;;;;5048648;28;20428;-73
2022/10/31 02:02:24;;;;;;;24.10;17.40;;;12.60;99.90;;;;;;5065704;28;20045;-72
2022/10/31 02:04:51;;;;;;;19.25;16.13;;;12.60;99.90;;;;;;5057363;28;20504;-72
2022/10/31 02:07:27;;;;;;;18.95;16.85;;;12.60;99.90;;;;;;5051500;28;20037;-72
2022/10/31 02:09:54;;;;;;;19.30;15.07;;;12.60;99.90;;;;;;5064825;28;20432;-72
2022/10/31 02:12:21;;;;;;;19.08;14.80;;;12.60;99.90;;;;;;5072554;28;20132;-72
2022/10/31 02:14:46;;;;;;;20.02;14.82;;;12.60;99.90;;;;;;5072309;28;20045;-73
2022/10/31 02:17:13;;;;;;;14.05;12.55;;;12.50;99.90;;;;;;5067878;28;20040;-72
2022/10/31 02:19:54;;;;;;;18.05;13.65;;;12.50;99.90;;;;;;5088212;28;20055;-73
2022/10/31 02:22:29;;;;;;;15.18;12.70;;;12.50;99.90;;;;;;5077473;28;20043;-73
2022/10/31 02:25:17;;;;;;;18.13;14.18;;;12.50;99.90;;;;;;5065478;28;20163;-72
2022/10/31 02:28:10;;;;;;;16.10;12.77;;;12.50;99.90;;;;;;5052366;28;20479;-72
2022/10/31 02:30:40;;;;;;;15.60;12.38;;;12.40;99.90;;;;;;5054995;28;20072;-73
2022/10/31 02:33:20;;;;;;;16.15;12.75;;;12.30;99.90;;;;;;5062684;28;20551;-73
2022/10/31 02:36:02;;;;;;;17.00;13.13;;;12.30;99.90;;;;;;5058170;28;20048;-73
2022/10/31 02:38:48;;;;;;;13.10;10.70;;;12.20;99.90;;;;;;5062040;28;20150;-73
2022/10/31 02:41:26;;;;;;;20.83;15.15;;;12.20;99.90;;;;;;5069247;28;20093;-72
2022/10/31 02:44:04;;;;;;;17.35;14.25;;;12.20;99.90;;;;;;5075906;28;20124;-73
2022/10/31 02:46:54;;;;;;;17.30;14.23;;;12.20;99.90;;;;;;5049530;28;20045;-73
2022/10/31 02:49:27;;;;;;;15.68;12.88;;;12.20;99.90;;;;;;5051989;28;20515;-73
2022/10/31 02:51:53;;;;;;;13.57;12.13;;;12.20;99.90;;;;;;5049922;28;21021;-73
2022/10/31 02:54:22;;;;;;;10.75;9.68;;;12.20;99.90;;;;;;5059131;28;20041;-72
2022/10/31 02:56:50;;;;;;;13.32;10.93;;;12.20;99.90;;;;;;5049078;28;20128;-73
2022/10/31 02:59:16;;;;;;;14.02;11.95;;;12.10;99.90;;;;;;5058218;28;20507;-72
2022/10/31 03:01:55;;;;;;;13.52;11.80;;;12.10;99.90;;;;;;5054326;28;20049;-72
2022/10/31 03:04:48;;;;;;;9.70;8.40;;;12.00;99.90;;;;;;5077062;28;20475;-73
2022/10/31 03:07:28;;;;;;;10.52;8.38;;;12.00;99.90;;;;;;5046251;28;20051;-72
2022/10/31 03:10:16;;;;;;;16.20;13.27;;;11.90;99.90;;;;;;5058673;28;20135;-73
2022/10/31 03:12:54;;;;;;;14.07;10.38;;;11.90;99.90;;;;;;5061978;28;20480;-73
2022/10/31 03:15:27;;;;;;;13.88;10.77;;;11.90;99.90;;;;;;5057802;28;20048;-72
2022/10/31 03:18:13;;;;;;;24.35;14.15;;;11.90;99.90;;;;;;5062284;28;20028;-72
2022/10/31 03:20:52;;;;;;;15.32;13.38;;;11.90;99.90;;;;;;5079299;28;20276;-72
2022/10/31 03:23:20;;;;;;;19.80;15.80;;;11.90;99.90;;;;;;5064452;28;20115;-72
2022/10/31 03:25:47;;;;;;;17.10;12.70;;;11.90;99.90;;;;;;5061664;28;20052;-73
2022/10/31 03:28:17;;;;;;;13.95;12.15;;;11.90;99.90;;;;;;5060930;28;20274;-72
2022/10/31 03:30:45;;;;;;;14.88;12.52;;;11.80;99.90;;;;;;5067380;28;20036;-73
2022/10/31 03:33:13;;;;;;;;;;;11.70;99.90;;;;;;5064265;28;20718;-72
2022/10/31 03:35:42;;;;;;;14.25;11.82;;;11.70;99.90;;;;;;5048966;28;20293;-72
2022/10/31 03:38:10;;;;;;;17.83;14.02;;;11.60;99.90;;;;;;5053437;28;20411;-72
2022/10/31 03:40:36;;;;;;;;;;;11.60;99.90;;;;;;5058566;28;20063;-72
2022/10/31 03:43:08;;;;;;;18.60;15.97;;;11.60;99.90;;;;;;5062030;28;19990;-72
2022/10/31 03:45:39;;;;;;;19.77;16.33;;;11.60;99.90;;;;;;5057335;28;20303;-72
2022/10/31 03:48:05;;;;;;;20.55;15.95;;;11.70;99.90;;;;;;5071440;28;20032;-73
2022/10/31 03:50:47;;;;;;;19.80;16.98;;;11.70;99.90;;;;;;5056223;28;20095;-72
2022/10/31 03:53:26;;;;;;;19.95;17.08;;;11.70;99.90;;;;;;5060724;28;20754;-73
2022/10/31 03:56:01;;;;;;;19.70;17.40;;;11.70;99.90;;;;;;5046634;28;20040;-73
2022/10/31 03:58:43;;;;;;;21.05;18.10;;;11.70;99.90;;;;;;5058673;28;20483;-73
2022/10/31 04:01:13;;;;;;;20.20;17.83;;;11.70;99.90;;;;;;5062217;28;20060;-72
2022/10/31 04:03:39;;;;;;;19.63;17.52;;;11.70;99.90;;;;;;5056319;28;20439;-72
2022/10/31 04:06:11;;;;;;;23.38;18.77;;;11.70;99.90;;;;;;5068173;28;20060;-72
2022/10/31 04:08:50;;;;;;;20.92;18.70;;;11.70;99.90;;;;;;5055477;28;20094;-72
2022/10/31 04:11:19;;;;;;;20.73;18.63;;;11.70;99.90;;;;;;5066779;28;20044;-72
2022/10/31 04:13:47;;;;;;;18.70;16.65;;;11.70;99.90;;;;;;5072760;28;20041;-72
2022/10/31 04:16:13;;;;;;;;;;;11.70;99.90;;;;;;5058614;28;20051;-72
2022/10/31 04:18:39;;;;;;;23.00;20.73;;;11.70;99.90;;;;;;5056964;28;19947;-72
2022/10/31 04:21:07;;;;;;;16.42;14.63;;;11.60;99.90;;;;;;5060997;28;20041;-72
2022/10/31 04:23:34;;;;;;;18.75;15.93;;;11.60;99.90;;;;;;5064956;28;20049;-72
2022/10/31 04:26:00;;;;;;;15.18;13.68;;;11.60;99.90;;;;;;5061912;28;20094;-72
2022/10/31 04:28:26;;;;;;;19.30;14.90;;;11.50;99.90;;;;;;5062191;28;20057;-72
2022/10/31 04:30:52;;;;;;;19.20;16.92;;;11.50;99.90;;;;;;5069796;28;20108;-72
2022/10/31 04:33:18;;;;;;;15.35;13.40;;;11.50;99.90;;;;;;5069129;28;20445;-71
2022/10/31 04:35:44;;;;;;;14.57;11.23;;;11.50;99.90;;;;;;5070053;28;20174;-72
2022/10/31 04:38:09;;;;;;;18.98;15.98;;;11.40;99.90;;;;;;5058174;28;20044;-72
2022/10/31 04:40:35;;;;;;;20.27;15.35;;;11.40;99.90;;;;;;5060675;28;20048;-73
2022/10/31 04:43:00;;;;;;;17.25;12.95;;;11.40;99.90;;;;;;5053875;28;20041;-72
2022/10/31 04:45:26;;;;;;;19.00;16.80;;;11.40;99.90;;;;;;5055916;28;20047;-72
2022/10/31 04:47:52;;;;;;;24.38;19.55;;;11.30;99.90;;;;;;5056083;28;21921;-72
2022/10/31 04:50:17;;;;;;;21.95;19.58;;;11.40;99.90;;;;;;5056207;28;20059;-73
2022/10/31 04:52:44;;;;;;;23.88;21.35;;;11.40;99.90;;;;;;5054295;28;20041;-72
2022/10/31 04:55:11;;;;;;;23.75;20.27;;;11.40;99.90;;;;;;5063375;28;20156;-72
2022/10/31 04:57:48;;;;;;;28.97;22.67;;;11.50;99.90;;;;;;5058767;28;20044;-73
2022/10/31 05:00:15;;;;;;;24.10;19.73;;;11.50;99.90;;;;;;5063815;28;20346;-74
2022/10/31 05:02:52;;;;;;;20.02;17.90;;;11.50;99.90;;;;;;5049299;28;20042;-73
2022/10/31 05:05:20;;;;;;;17.75;15.77;;;11.50;99.90;;;;;;5052209;28;20041;-72
2022/10/31 05:07:47;;;;;;;17.58;14.63;;;11.40;99.90;;;;;;5059412;28;20041;-72
2022/10/31 05:10:16;;;;;;;18.73;15.13;;;11.20;99.90;;;;;;5059086;28;20032;-72
2022/10/31 05:12:57;;;;;;;18.33;15.85;;;11.30;99.90;;;;;;5064044;28;20045;-72
2022/10/31 05:15:24;;;;;;;17.05;14.00;;;11.30;99.90;;;;;;5056324;28;20514;-72
2022/10/31 05:17:50;;;;;;;16.52;13.40;;;11.20;99.90;;;;;;5057870;28;20063;-73
2022/10/31 05:20:17;;;;;;;14.85;13.35;;;11.20;99.90;;;;;;5064691;28;20055;-72
2022/10/31 05:22:44;;;;;;;;;;;11.10;99.90;;;;;;5068177;28;20430;-72
2022/10/31 05:25:10;;;;;;;12.80;11.50;;;11.00;99.90;;;;;;5054642;28;19928;-72
2022/10/31 05:27:39;;;;;;;14.63;13.23;;;11.00;99.90;;;;;;5055176;28;20668;-72
2022/10/31 05:30:05;;;;;;;23.65;12.30;;;11.00;99.90;;;;;;5068991;28;20051;-72
2022/10/31 05:32:37;;;;;;;16.20;14.45;;;10.90;99.90;;;;;;5064604;28;20051;-73
2022/10/31 05:35:03;;;;;;;13.80;12.30;;;10.90;99.90;;;;;;5064206;28;20052;-72
2022/10/31 05:37:28;;;;;;;13.85;12.35;;;10.80;99.90;;;;;;5054545;28;20044;-72
2022/10/31 05:39:54;;;;;;;13.32;11.32;;;10.80;99.90;;;;;;5066721;28;20147;-72
2022/10/31 05:42:20;;;;;;;15.70;14.02;;;10.70;99.90;;;;;;5062147;28;20385;-72
2022/10/31 05:44:45;;;;;;;17.73;15.65;;;10.80;99.90;;;;;;5058987;28;20049;-72
2022/10/31 05:47:11;;;;;;;17.58;14.57;;;10.70;99.90;;;;;;5051550;28;20044;-72
2022/10/31 05:49:36;;;;;;;17.45;15.63;;;10.70;99.90;;;;;;5061650;28;20103;-72
2022/10/31 05:52:02;;;;;;;15.32;13.70;;;10.70;99.90;;;;;;5056213;28;20507;-72
2022/10/31 05:54:28;;;;;;;17.50;15.43;;;10.70;99.90;;;;;;5066766;28;20082;-73
2022/10/31 05:56:53;;;;;;;16.90;14.65;;;10.70;99.90;;;;;;5059789;28;20101;-72
2022/10/31 05:59:19;;;;;;;16.00;14.40;;;10.70;99.90;;;;;;5052088;28;20469;-72
2022/10/31 06:01:44;;;;;;;17.05;13.90;;;10.70;99.90;;;;;;5054496;28;20037;-72
2022/10/31 06:04:10;;;;;;;16.33;14.50;;;10.70;99.90;;;;;;5068480;28;20104;-72
2022/10/31 06:06:35;;;;;;;16.55;14.27;;;10.80;99.90;;;;;;5067883;28;20052;-72
2022/10/31 06:09:01;;;;;;;16.05;14.10;;;10.70;99.90;;;;;;5053995;28;20498;-72
2022/10/31 06:11:27;;;;;;;18.55;15.38;;;10.70;99.90;;;;;;5070640;28;20048;-72
2022/10/31 06:13:52;;;;;;;17.25;15.50;;;10.70;99.90;;;;;;5062987;28;21500;-72
2022/10/31 06:16:18;;;;;;;20.25;17.88;;;10.70;99.90;;;;;;5063175;28;20044;-72
2022/10/31 06:18:45;;;;;;;18.85;16.23;;;10.70;99.90;;;;;;5051244;28;20084;-72
2022/10/31 06:21:10;;;;;;;21.38;17.70;;;10.70;99.90;;;;;;5070396;28;20032;-72
2022/10/31 06:23:36;;;;;;;25.48;18.35;;;10.70;99.90;;;;;;5067151;28;20047;-71
2022/10/31 06:26:01;;;;;;;25.75;17.52;;;10.70;99.90;;;;;;5055518;28;20510;-72
2022/10/31 06:28:27;;;;;;;22.77;16.85;;;10.60;99.90;;;;;;5052105;28;20064;-71
2022/10/31 06:30:53;;;;;;;28.13;16.60;;;10.60;99.90;;;;;;5057382;28;20166;-71
2022/10/31 06:33:18;;;;;;;21.33;15.55;;;10.60;99.90;;;;;;5060656;28;20045;-71
2022/10/31 06:35:47;;;;;;;29.08;16.30;;;10.50;99.90;;;;;;5050960;28;20450;-71
2022/10/31 06:38:14;;;;;;;16.95;15.15;;;10.60;99.90;;;;;;5064966;28;20041;-71
2022/10/31 06:40:41;;;;;;;17.42;15.63;;;10.50;99.90;;;;;;5066590;28;20048;-71
2022/10/31 06:43:06;;;;;;;16.30;14.70;;;10.50;99.90;;;;;;5064732;28;20075;-71
2022/10/31 06:45:32;;;;;;;16.83;15.20;;;10.50;99.90;;;;;;5070638;28;20135;-71
2022/10/31 06:47:58;;;;;;;16.92;15.15;;;10.50;99.90;;;;;;5065025;28;20075;-72
2022/10/31 06:50:23;;;;;;;93.53;17.08;;;10.40;99.90;;;;;;5071865;28;20040;-70
2022/10/31 06:52:54;;;;;;;13.45;12.23;;;10.50;99.90;;;;;;5052955;28;20187;-70
2022/10/31 06:55:22;;;;;;;13.73;12.32;;;10.50;99.90;;;;;;5059942;28;20048;-71
2022/10/31 06:58:06;;;;;;;18.48;16.35;;;10.40;99.90;;;;;;5051831;28;20039;-71
2022/10/31 07:00:32;;;;;;;19.13;16.30;;;10.50;99.90;;;;;;5058744;28;20081;-71
2022/10/31 07:03:04;;;;;;;19.63;17.65;;;10.40;99.90;;;;;;5056187;28;20067;-72
2022/10/31 07:05:30;;;;;;;19.17;17.20;;;10.50;99.90;;;;;;5060317;28;20092;-72
2022/10/31 07:08:01;;;;;;;22.65;19.00;;;10.50;99.90;;;;;;5058302;28;20084;-71
2022/10/31 07:10:29;;;;;;;20.38;18.38;;;10.50;99.90;;;;;;5061190;28;20086;-72
2022/10/31 07:12:56;;;;;;;21.42;19.13;;;10.50;99.90;;;;;;5059938;28;20094;-71
2022/10/31 07:15:22;;;;;;;28.15;18.70;;;10.60;99.90;;;;;;5048630;28;20369;-72
2022/10/31 07:17:48;;;;;;;22.17;19.90;;;10.60;99.90;;;;;;5059606;28;20047;-72
2022/10/31 07:20:13;;;;;;;22.95;20.55;;;10.60;99.90;;;;;;5062288;28;20491;-72
2022/10/31 07:22:39;;;;;;;25.70;21.33;;;10.60;99.90;;;;;;5061026;28;20071;-72
2022/10/31 07:25:06;;;;;;;38.88;20.50;;;10.60;99.90;;;;;;5061382;28;20040;-72
2022/10/31 07:27:39;;;;;;;19.15;17.02;;;10.60;99.90;;;;;;5065571;28;20048;-72
2022/10/31 07:30:06;;;;;;;21.00;18.77;;;10.70;99.90;;;;;;5059561;28;20094;-71
2022/10/31 07:32:40;;;;;;;21.20;19.02;;;10.70;99.90;;;;;;5063527;28;20127;-72
2022/10/31 07:35:07;;;;;;;26.30;21.95;;;10.60;99.90;;;;;;5062993;28;20063;-72
2022/10/31 07:37:33;;;;;;;27.88;24.27;;;10.70;99.90;;;;;;5064312;28;20080;-72
2022/10/31 07:39:59;;;;;;;29.17;24.02;;;10.70;99.90;;;;;;5062510;28;20989;-72
2022/10/31 07:42:25;;;;;;;29.88;24.42;;;10.70;99.90;;;;;;5061016;28;20484;-72
2022/10/31 07:44:50;;;;;;;28.50;25.42;;;10.80;99.90;;;;;;5065811;28;20094;-72
2022/10/31 07:47:16;;;;;;;26.85;23.95;;;10.80;99.90;;;;;;5071410;28;20040;-72
2022/10/31 07:49:42;;;;;;;31.08;27.23;;;10.80;99.90;;;;;;5059137;28;20472;-71
2022/10/31 07:52:07;;;;;;;29.33;25.90;;;10.90;99.90;;;;;;5061732;28;20488;-71
2022/10/31 07:54:33;;;;;;;29.48;26.38;;;11.00;99.90;;;;;;5063379;28;20043;-75
2022/10/31 07:56:59;;;;;;;31.48;27.80;;;11.00;99.90;;;;;;5056879;28;20339;-77
2022/10/31 07:59:25;;;;;;;34.30;27.55;;;11.10;99.90;;;;;;5064276;28;20376;-74
2022/10/31 08:01:51;;;;;;;29.77;26.42;;;11.10;99.90;;;;;;5057014;28;20119;-76
2022/10/31 08:04:16;;;;;;;30.77;27.48;;;11.20;99.90;;;;;;5069040;28;20127;-76
2022/10/31 08:06:42;;;;;;;37.47;31.77;;;11.30;99.90;;;;;;5070187;28;20048;-80
2022/10/31 08:09:08;;;;;;;36.67;30.13;;;11.30;99.90;;;;;;5054322;28;20047;-80
2022/10/31 08:11:33;;;;;;;34.13;28.85;;;11.50;99.90;;;;;;5066414;28;20036;-81
2022/10/31 08:13:59;;;;;;;36.50;30.10;;;11.50;99.90;;;;;;5066113;28;20060;-82
2022/10/31 08:16:24;;;;;;;39.88;31.42;;;11.60;99.90;;;;;;5078934;28;20079;-77
2022/10/31 08:18:50;;;;;;;37.45;30.88;;;11.60;99.90;;;;;;5066274;28;20384;-78
2022/10/31 08:21:16;;;;;;;33.40;29.65;;;11.60;99.90;;;;;;5069164;28;20055;-77
2022/10/31 08:23:41;;;;;;;35.05;29.63;;;11.70;99.90;;;;;;5055236;28;20037;-76
2022/10/31 08:26:07;;;;;;;34.45;28.63;;;11.70;99.90;;;;;;5060855;28;20513;-74
2022/10/31 08:28:32;;;;;;;36.40;30.70;;;11.80;99.90;;;;;;5068090;28;20048;-75
2022/10/31 08:30:58;;;;;;;41.80;32.85;;;11.80;99.90;;;;;;5073401;28;20161;-76
2022/10/31 08:33:24;;;;;;;38.35;31.45;;;11.90;99.90;;;;;;5070365;28;20049;-74
2022/10/31 08:35:50;;;;;;;37.83;30.65;;;12.00;99.90;;;;;;5078521;28;20043;-75
2022/10/31 08:38:16;;;;;;;36.05;30.60;;;12.10;99.90;;;;;;5071562;28;20041;-74
2022/10/31 08:40:42;;;;;;;37.80;30.48;;;12.20;99.90;;;;;;5079044;28;20505;-74
2022/10/31 08:43:13;;;;;;;38.30;32.13;;;12.30;99.90;;;;;;5074969;28;20032;-76
2022/10/31 08:45:40;;;;;;;37.60;30.25;;;12.40;99.90;;;;;;5066823;28;20045;-76
2022/10/31 08:48:09;;;;;;;35.83;28.98;;;12.30;99.90;;;;;;5067381;28;20078;-78
2022/10/31 08:50:36;;;;;;;38.08;31.58;;;12.40;99.90;;;;;;5066132;28;20044;-78
2022/10/31 08:53:04;;;;;;;38.58;31.33;;;12.50;99.90;;;;;;5065746;28;20051;-78
2022/10/31 08:55:29;;;;;;;37.08;29.67;;;12.60;99.90;;;;;;5067021;28;20045;-76
2022/10/31 08:57:56;;;;;;;39.53;32.42;;;12.60;99.90;;;;;;5057029;28;20068;-76
2022/10/31 09:00:22;;;;;;;38.83;30.65;;;12.80;99.90;;;;;;5062226;28;20049;-76
2022/10/31 09:02:54;;;;;;;39.08;31.65;;;12.80;99.90;;;;;;5067441;28;20040;-78
2022/10/31 09:05:19;;;;;;;37.58;30.42;;;12.80;99.90;;;;;;5065274;28;20094;-78
2022/10/31 09:07:45;;;;;;;38.65;31.67;;;12.90;99.90;;;;;;5071255;28;20036;-71
2022/10/31 09:10:10;;;;;;;37.70;31.45;;;12.90;99.90;;;;;;5068115;28;20036;-71
2022/10/31 09:12:36;;;;;;;38.45;29.77;;;13.00;99.90;;;;;;5072049;28;20043;-71
2022/10/31 09:15:02;;;;;;;40.92;32.42;;;13.00;99.90;;;;;;5068124;28;20036;-70
2022/10/31 09:17:28;;;;;;;36.72;31.13;;;13.10;99.90;;;;;;5070488;28;20044;-71
2022/10/31 09:19:54;;;;;;;40.60;32.75;;;13.20;99.90;;;;;;5084397;28;20048;-71
2022/10/31 09:22:20;;;;;;;38.95;31.85;;;13.20;99.90;;;;;;5082278;28;20193;-72
2022/10/31 09:24:45;;;;;;;40.60;31.50;;;13.20;99.90;;;;;;5079442;28;20044;-71
2022/10/31 09:27:11;;;;;;;37.50;31.90;;;13.30;99.90;;;;;;5080215;28;20071;-71
2022/10/31 09:29:37;;;;;;;40.72;31.15;;;13.30;99.90;;;;;;5083934;28;20040;-71
2022/10/31 09:32:02;;;;;;;44.30;32.28;;;13.30;99.90;;;;;;5087566;28;20079;-73
2022/10/31 09:34:28;;;;;;;41.55;32.45;;;13.40;99.90;;;;;;5086462;28;20036;-73
2022/10/31 09:36:53;;;;;;;37.95;31.75;;;13.40;99.90;;;;;;5081643;28;20159;-73
2022/10/31 09:39:19;;;;;;;41.55;31.63;;;13.40;99.90;;;;;;5084833;28;20090;-73
2022/10/31 09:41:59;;;;;;;39.95;31.27;;;13.40;99.90;;;;;;5076966;28;20123;-73
2022/10/31 09:44:39;;;;;;;40.47;31.45;;;13.40;99.90;;;;;;5088995;28;20044;-73
2022/10/31 09:47:10;;;;;;;41.25;32.08;;;13.50;99.90;;;;;;5049191;28;20162;-73
2022/10/31 09:49:58;;;;;;;44.05;33.30;;;13.50;99.90;;;;;;5051095;28;20083;-74
2022/10/31 09:52:32;;;;;;;38.28;31.42;;;13.60;99.90;;;;;;5058150;28;20123;-74
2022/10/31 09:55:15;;;;;;;38.20;30.98;;;13.60;99.90;;;;;;5051560;28;20095;-76
2022/10/31 09:57:42;;;;;;;40.88;30.95;;;13.60;99.90;;;;;;5069245;28;20083;-76
2022/10/31 10:00:16;;;;;;;38.05;31.55;;;13.50;99.90;;;;;;5078259;28;20103;-75
2022/10/31 10:02:47;;;;;;;41.85;30.17;;;13.60;99.90;;;;;;5060784;28;20041;-76
2022/10/31 10:05:21;;;;;;;38.50;32.50;;;13.70;99.90;;;;;;5054902;28;20049;-77
2022/10/31 10:08:07;;;;;;;40.38;31.63;;;13.80;99.90;;;;;;5081133;28;20032;-75
2022/10/31 10:10:43;;;;;;;41.10;30.75;;;13.80;99.90;;;;;;5068151;28;20040;-76
2022/10/31 10:13:30;;;;;;;39.88;31.52;;;13.80;99.90;;;;;;5080467;28;20048;-75
2022/10/31 10:16:19;;;;;;;39.35;31.48;;;13.90;99.90;;;;;;5061943;28;20043;-76
2022/10/31 10:19:31;;;;;;;39.20;31.67;;;13.90;99.90;;;;;;5072833;28;20617;-75
2022/10/31 10:22:04;;;;;;;40.50;30.73;;;14.00;99.90;;;;;;5087338;28;20052;-75
2022/10/31 10:25:01;;;;;;;38.72;30.50;;;14.00;99.90;;;;;;5077564;28;20044;-73
2022/10/31 10:27:57;;;;;;;39.50;29.52;;;14.10;99.90;;;;;;5084876;28;20088;-76
2022/10/31 10:30:27;;;;;;;41.63;29.83;;;14.10;99.90;;;;;;5080616;28;20487;-74
2022/10/31 10:32:59;;;;;;;39.97;29.63;;;14.20;99.90;;;;;;5080184;28;20040;-75
2022/10/31 10:35:40;;;;;;;35.53;27.25;;;14.20;99.90;;;;;;5076899;28;20059;-75
2022/10/31 10:38:29;;;;;;;36.78;26.95;;;14.30;99.90;;;;;;5072624;28;20041;-74
2022/10/31 10:40:55;;;;;;;32.70;26.25;;;14.30;99.90;;;;;;5059590;28;20100;-74
2022/10/31 10:43:32;;;;;;;36.60;27.20;;;14.30;99.90;;;;;;5067492;28;20036;-74
2022/10/31 10:49:19;;;;;;;33.75;25.88;;;14.40;99.90;;;;;;5079780;28;20495;-76
2022/10/31 10:51:46;;;;;;;35.88;25.02;;;14.40;99.90;;;;;;5088124;28;20044;-74
2022/10/31 10:54:30;;;;;;;35.30;26.05;;;14.50;99.90;;;;;;5087012;28;20121;-75
2022/10/31 10:57:21;;;;;;;33.00;24.88;;;14.50;99.90;;;;;;5056193;28;20210;-74
2022/10/31 10:59:47;;;;;;;30.77;23.35;;;14.60;99.90;;;;;;5083637;28;20073;-74
2022/10/31 11:02:23;;;;;;;29.58;23.90;;;14.60;99.90;;;;;;5070788;28;20028;-70
2022/10/31 11:04:52;;;;;;;34.72;24.23;;;14.70;99.90;;;;;;5082971;28;20088;-74
2022/10/31 11:07:18;;;;;;;31.52;23.48;;;14.70;99.90;;;;;;5062333;28;20044;-74
2022/10/31 11:09:44;;;;;;;31.50;24.02;;;14.80;99.90;;;;;;5078157;28;20051;-73
2022/10/31 11:12:17;;;;;;;33.33;22.65;;;14.80;99.90;;;;;;5075035;28;20051;-73
2022/10/31 11:14:50;;;;;;;32.38;23.70;;;14.90;99.90;;;;;;5071472;28;20461;-74
2022/10/31 11:17:31;;;;;;;27.42;23.15;;;14.90;99.90;;;;;;5066790;28;20063;-73
2022/10/31 11:20:03;;;;;;;30.02;22.48;;;14.90;99.90;;;;;;5065840;28;20040;-72
2022/10/31 11:22:29;;;;;;;27.00;20.50;;;14.90;99.90;;;;;;5074482;28;20055;-73
2022/10/31 11:24:55;;;;;;;26.48;19.75;;;14.90;99.90;;;;;;5087475;28;20048;-75
2022/10/31 11:27:23;;;;;;;22.00;17.88;;;15.00;99.90;;;;;;5064683;28;20408;-74
2022/10/31 11:29:51;;;;;;;24.02;17.25;;;15.00;99.90;;;;;;5069304;28;20068;-73
2022/10/31 11:32:26;;;;;;;22.47;16.80;;;15.00;99.90;;;;;;5064924;28;20131;-73
2022/10/31 11:34:56;;;;;;;22.83;16.60;;;15.00;99.90;;;;;;5056849;28;20056;-73
2022/10/31 11:37:25;;;;;;;26.92;18.38;;;15.00;99.90;;;;;;5057098;28;21304;-74
2022/10/31 11:39:56;;;;;;;27.42;19.15;;;15.00;99.90;;;;;;5069945;28;20553;-73
2022/10/31 11:42:43;;;;;;;24.90;19.42;;;15.00;99.90;;;;;;5067960;28;20087;-73
2022/10/31 11:45:32;;;;;;;26.48;19.52;;;15.00;99.90;;;;;;5069172;28;20186;-74
2022/10/31 11:48:00;;;;;;;27.65;20.35;;;15.00;99.90;;;;;;5071314;28;20672;-73
2022/10/31 11:50:41;;;;;;;26.52;18.90;;;15.00;99.90;;;;;;5065992;28;20044;-72
2022/10/31 11:53:25;;;;;;;24.38;17.63;;;15.00;99.90;;;;;;5067253;28;20048;-78
2022/10/31 11:56:09;;;;;;;23.48;17.67;;;15.10;99.90;;;;;;5052543;28;20067;-75
2022/10/31 11:58:35;;;;;;;22.73;16.25;;;15.10;99.90;;;;;;5059875;28;20131;-79
2022/10/31 12:01:01;;;;;;;25.70;16.75;;;15.10;99.90;;;;;;5067614;28;20522;-73
2022/10/31 12:04:04;;;;;;;24.17;16.10;;;15.10;99.90;;;;;;5069037;28;20403;-72
2022/10/31 12:06:37;;;;;;;20.95;15.90;;;15.10;99.90;;;;;;5058046;28;20049;-72
2022/10/31 12:09:22;;;;;;;23.38;15.77;;;15.10;99.90;;;;;;5064737;28;20133;-71
2022/10/31 12:12:19;;;;;;;24.20;15.05;;;15.20;99.90;;;;;;5071647;28;20045;-72
2022/10/31 12:15:03;;;;;;;17.65;12.93;;;15.20;99.90;;;;;;5056769;28;20040;-73
2022/10/31 12:17:43;;;;;;;17.52;12.43;;;15.20;99.90;;;;;;5068308;28;20045;-73
2022/10/31 12:20:21;;;;;;;17.67;13.02;;;15.20;99.90;;;;;;5065627;28;20044;-72
2022/10/31 12:23:08;;;;;;;18.92;12.38;;;15.30;99.90;;;;;;5064583;28;20094;-71
2022/10/31 12:26:10;;;;;;;18.65;13.02;;;15.30;99.90;;;;;;5068839;28;20431;-72
2022/10/31 12:28:50;;;;;;;19.73;12.73;;;15.30;99.90;;;;;;5048990;28;20179;-72
2022/10/31 12:31:38;;;;;;;19.63;13.13;;;15.40;99.90;;;;;;5069551;28;20065;-72
2022/10/31 12:34:29;;;;;;;19.38;13.38;;;15.40;99.90;;;;;;5068784;28;20488;-72
2022/10/31 12:37:31;;;;;;;18.75;13.52;;;15.60;99.90;;;;;;5072869;28;20506;-71
2022/10/31 12:40:17;;;;;;;17.98;13.10;;;15.60;99.90;;;;;;5023189;28;20044;-72
2022/10/31 12:43:12;;;;;;;17.48;12.20;;;15.60;99.90;;;;;;5062686;28;20041;-77
2022/10/31 12:45:56;;;;;;;16.30;11.68;;;15.70;99.90;;;;;;5068684;28;20040;-72
2022/10/31 12:48:49;;;;;;;15.38;10.77;;;15.80;99.90;;;;;;5072846;28;20082;-78
2022/10/31 12:51:29;;;;;;;14.70;11.18;;;15.80;99.90;;;;;;5069332;28;20056;-73